Otter Creek, Florida
Current Conditions -  °F | °C
As of 12:55 PM on Tuesday 21 Oct 2014 (Local Time) from KCGC Reporting Station
Clear Clear  
Wind Chill: 77°   Ceiling: Unl
Heat Index: 79°   Visibility: 10mi
Dew Point: 64°   Wind: 3mph
Humidity: 65%   Direction: 350°N
Pressure: 29.97"   Gusts: NA
Location:  29.32°N, 82.77°W
Report Text: KCGC 211655Z AUTO 35003KT 10SM CLR 25/18 A2997 RMK AO2 PWINO
Loading
Personal Weather Stations






























Interactive Weather Map
Tropical Storm Tracking
New forecast layout! Learn more

10-Day Weather Forecast

Advertisements
Track Severe Weather on mobile